createdAt,value
2022-09-03T00:02:17.339Z,100496.53
2022-09-03T00:05:05.225Z,100497.34
2022-09-03T00:07:52.945Z,100493.97
2022-09-03T00:10:28.623Z,100488.41
2022-09-03T00:13:00.288Z,100491.19
2022-09-03T00:15:27.768Z,100488.41
2022-09-03T00:18:13.857Z,100493.97
2022-09-03T00:21:08.408Z,100493.41
2022-09-03T00:23:38.862Z,100496.69
2022-09-03T00:26:11.336Z,100489.47
2022-09-03T00:28:45.784Z,100486.94
2022-09-03T00:31:18.882Z,100481.66
2022-09-03T00:33:48.335Z,100484.44
2022-09-03T00:36:23.285Z,100481.06
2022-09-03T00:38:49.736Z,100477.72
2022-09-03T00:41:26.627Z,100477.72
2022-09-03T00:44:35.117Z,100473.25
2022-09-03T00:47:13.449Z,100481.34
2022-09-03T00:50:09.308Z,100482.75
2022-09-03T00:53:00.271Z,100492.50
2022-09-03T00:55:47.558Z,100486.09
2022-09-03T00:58:27.823Z,100488.88
2022-09-03T01:00:54.339Z,100491.31
2022-09-03T01:03:51.170Z,100488.81
2022-09-03T01:06:32.873Z,100483.47
2022-09-03T01:09:12.035Z,100488.72
2022-09-03T01:12:20.961Z,100488.88
2022-09-03T01:15:05.500Z,100487.41
2022-09-03T01:17:34.763Z,100502.66
2022-09-03T01:20:04.268Z,100503.72
2022-09-03T01:23:03.028Z,100502.06
2022-09-03T01:25:32.341Z,100501.75
2022-09-03T01:27:58.766Z,100512.84
2022-09-03T01:30:25.458Z,100514.50
2022-09-03T01:33:15.311Z,100505.09
2022-09-03T01:35:48.824Z,100498.97
2022-09-03T01:38:30.719Z,100505.63
2022-09-03T01:41:44.421Z,100501.69
2022-09-03T01:44:40.399Z,100500.50
2022-09-03T01:47:21.804Z,100501.59
2022-09-03T01:50:04.652Z,100499.66
2022-09-03T01:52:55.114Z,100500.50
2022-09-03T01:55:41.937Z,100501.59
2022-09-03T01:58:29.392Z,100491.84
2022-09-03T02:01:01.735Z,100489.06
2022-09-03T02:03:40.879Z,100491.63
2022-09-03T02:06:10.665Z,100486.31
2022-09-03T02:08:37.786Z,100486.31
2022-09-03T02:11:08.827Z,100481.06
2022-09-03T02:13:39.296Z,100486.38
2022-09-03T02:16:15.826Z,100484.41
2022-09-03T02:18:49.962Z,100486.44
2022-09-03T02:21:20.503Z,100485.09
2022-09-03T02:23:48.369Z,100484.56
2022-09-03T02:26:18.527Z,100481.84
2022-09-03T02:28:45.418Z,100476.28
2022-09-03T02:31:11.905Z,100474.34
2022-09-03T02:33:40.755Z,100479.06
2022-09-03T02:36:10.797Z,100472.09
2022-09-03T02:38:37.436Z,100479.88
2022-09-03T02:41:04.330Z,100485.66
2022-09-03T02:43:39.582Z,100480.97
2022-09-03T02:46:10.122Z,100486.75
2022-09-03T02:48:36.794Z,100489.81
2022-09-03T02:51:13.708Z,100478.69
2022-09-03T02:53:41.210Z,100477.25
2022-09-03T02:56:07.690Z,100478.09
2022-09-03T02:58:34.274Z,100472.81
2022-09-03T03:01:01.378Z,100467.00
2022-09-03T03:03:28.043Z,100467.28
2022-09-03T03:05:57.888Z,100454.47
2022-09-03T03:08:28.873Z,100466.69
2022-09-03T03:10:58.628Z,100466.69
2022-09-03T03:13:26.303Z,100477.78
2022-09-03T03:15:56.805Z,100468.94
2022-09-03T03:18:23.481Z,100460.34
2022-09-03T03:20:49.889Z,100460.94
2022-09-03T03:23:16.620Z,100450.13
2022-09-03T03:25:43.239Z,100451.81
2022-09-03T03:28:09.847Z,100449.91
2022-09-03T03:30:40.245Z,100452.44
2022-09-03T03:33:07.404Z,100457.97
2022-09-03T03:35:34.116Z,100463.53
2022-09-03T03:38:00.643Z,100457.97
2022-09-03T03:40:27.248Z,100464.09
2022-09-03T03:42:53.777Z,100458.28
2022-09-03T03:45:20.258Z,100462.47
2022-09-03T03:47:46.658Z,100470.81
2022-09-03T03:50:13.071Z,100472.22
2022-09-03T03:52:39.503Z,100468.97
2022-09-03T03:55:06.824Z,100468.16
2022-09-03T03:57:33.358Z,100457.03
2022-09-03T03:59:59.851Z,100468.16
2022-09-03T04:02:26.613Z,100460.94
2022-09-03T04:04:53.101Z,100463.13
2022-09-03T04:07:19.527Z,100452.00
2022-09-03T04:09:46.304Z,100453.94
2022-09-03T04:12:12.733Z,100458.66
2022-09-03T04:14:39.561Z,100455.06
2022-09-03T04:17:06.082Z,100458.94
2022-09-03T04:19:32.517Z,100455.88
2022-09-03T04:21:58.950Z,100452.63
2022-09-03T04:24:25.442Z,100450.16
2022-09-03T04:26:54.018Z,100448.19
2022-09-03T04:29:22.032Z,100450.47
2022-09-03T04:32:06.774Z,100455.50
2022-09-03T04:34:33.215Z,100453.28
2022-09-03T04:36:59.646Z,100452.50
2022-09-03T04:39:26.224Z,100455.59
2022-09-03T04:41:52.875Z,100452.88
2022-09-03T04:44:19.307Z,100445.72
2022-09-03T04:46:47.832Z,100451.81
2022-09-03T04:49:14.787Z,100459.63
2022-09-03T04:51:41.250Z,100458.53
2022-09-03T04:54:07.791Z,100461.31
2022-09-03T04:56:35.992Z,100461.88
2022-09-03T04:59:05.855Z,100463.56
2022-09-03T05:01:34.646Z,100468.28
2022-09-03T05:04:01.832Z,100469.97
2022-09-03T05:06:30.749Z,100467.75
2022-09-03T05:08:57.787Z,100456.63
2022-09-03T05:11:25.948Z,100470.28
2022-09-03T05:13:55.155Z,100461.94
2022-09-03T05:16:23.668Z,100464.72
2022-09-03T05:18:54.705Z,100456.13
2022-09-03T05:21:22.211Z,100475.31
2022-09-03T05:23:50.819Z,100458.94
2022-09-03T05:26:20.751Z,100464.84
2022-09-03T05:28:48.519Z,100461.56
2022-09-03T05:31:17.575Z,100457.41
2022-09-03T05:33:46.761Z,100465.78
2022-09-03T05:36:16.311Z,100475.03
2022-09-03T05:38:43.767Z,100464.53
2022-09-03T05:41:12.437Z,100462.94
2022-09-03T05:43:39.411Z,100469.13
2022-09-03T05:46:09.328Z,100463.31
2022-09-03T05:48:37.771Z,100467.56
2022-09-03T05:51:08.964Z,100463.97
2022-09-03T05:53:37.735Z,100467.63
2022-09-03T05:56:10.864Z,100463.19
2022-09-03T05:58:40.825Z,100472.69
2022-09-03T06:01:21.297Z,100465.50
2022-09-03T06:03:54.355Z,100475.81
2022-09-03T06:06:27.839Z,100470.56
2022-09-03T06:08:55.998Z,100467.22
2022-09-03T06:11:28.004Z,100475.03
2022-09-03T06:13:56.319Z,100476.19
2022-09-03T06:16:31.614Z,100476.47
2022-09-03T06:18:59.911Z,100476.56
2022-09-03T06:21:26.947Z,100481.28
2022-09-03T06:23:59.466Z,100479.69
2022-09-03T06:26:28.843Z,100488.06
2022-09-03T06:28:57.056Z,100483.66
2022-09-03T06:31:24.616Z,100493.44
2022-09-03T06:33:53.663Z,100492.31
2022-09-03T06:36:21.354Z,100489.88
2022-09-03T06:38:51.305Z,100492.97
2022-09-03T06:41:23.787Z,100490.47
2022-09-03T06:43:51.964Z,100494.69
2022-09-03T06:46:23.930Z,100501.13
2022-09-03T06:48:51.218Z,100495.28
2022-09-03T06:51:20.689Z,100501.75
2022-09-03T06:53:50.092Z,100493.94
2022-09-03T06:56:26.256Z,100502.34
2022-09-03T06:59:00.913Z,100507.91
2022-09-03T07:01:32.186Z,100507.66
2022-09-03T07:04:03.915Z,100510.41
2022-09-03T07:06:42.292Z,100514.00
2022-09-03T07:09:10.432Z,100503.16
2022-09-03T07:11:37.422Z,100513.41
2022-09-03T07:14:05.151Z,100505.56
2022-09-03T07:16:37.035Z,100516.16
2022-09-03T07:19:05.021Z,100507.19
2022-09-03T07:21:39.045Z,100505.84
2022-09-03T07:24:06.257Z,100511.13
2022-09-03T07:26:35.672Z,100515.56
2022-09-03T07:29:02.803Z,100513.34
2022-09-03T07:31:42.512Z,100513.09
2022-09-03T07:34:12.559Z,100516.16
2022-09-03T07:36:45.629Z,100514.78
2022-09-03T07:39:13.589Z,100511.16
2022-09-03T07:41:43.399Z,100507.88
2022-09-03T07:44:10.064Z,100509.84
2022-09-03T07:46:38.649Z,100511.53
2022-09-03T07:49:06.301Z,100509.84
2022-09-03T07:51:37.760Z,100513.47
2022-09-03T07:54:07.632Z,100510.13
2022-09-03T07:56:35.777Z,100512.94
2022-09-03T07:59:03.363Z,100510.16
2022-09-03T08:01:32.669Z,100512.13
2022-09-03T08:03:59.556Z,100519.94
2022-09-03T08:06:28.429Z,100512.41
2022-09-03T08:09:04.954Z,100516.88
2022-09-03T08:11:35.153Z,100520.78
2022-09-03T08:14:06.189Z,100520.78
2022-09-03T08:16:35.286Z,100513.53
2022-09-03T08:19:01.900Z,100521.34
2022-09-03T08:21:28.457Z,100512.16
2022-09-03T08:24:02.522Z,100516.88
2022-09-03T08:26:34.023Z,100512.69
2022-09-03T08:29:00.849Z,100522.19
2022-09-03T08:31:29.286Z,100524.69
2022-09-03T08:33:58.016Z,100529.44
2022-09-03T08:36:30.320Z,100526.97
2022-09-03T08:38:59.383Z,100528.06
2022-09-03T08:41:53.582Z,100528.03
2022-09-03T08:44:41.271Z,100534.50
2022-09-03T08:47:21.984Z,100537.00
2022-09-03T08:49:56.115Z,100533.38
2022-09-03T08:52:38.319Z,100531.16
2022-09-03T08:55:11.069Z,100532.53
2022-09-03T08:57:44.849Z,100537.25
2022-09-03T09:00:11.819Z,100538.66
2022-09-03T09:03:15.327Z,100544.81
2022-09-03T09:05:55.513Z,100546.50
2022-09-03T09:08:45.413Z,100540.91
2022-09-03T09:11:20.509Z,100543.13
2022-09-03T09:13:59.467Z,100544.25
2022-09-03T09:16:42.561Z,100544.50
2022-09-03T09:19:54.226Z,100547.84
2022-09-03T09:22:30.034Z,100543.69
2022-09-03T09:25:00.821Z,100555.97
2022-09-03T09:27:28.672Z,100547.84
2022-09-03T09:29:57.853Z,100548.66
2022-09-03T09:32:24.251Z,100544.75
2022-09-03T09:34:52.685Z,100530.75
2022-09-03T09:37:19.897Z,100533.22
2022-09-03T09:39:57.965Z,100531.78
2022-09-03T09:42:24.937Z,100537.34
2022-09-03T09:44:51.846Z,100545.13
2022-09-03T09:47:31.646Z,100544.59
2022-09-03T09:50:00.380Z,100541.22
2022-09-03T09:52:30.193Z,100549.00
2022-09-03T09:55:14.509Z,100548.16
2022-09-03T09:57:40.905Z,100534.72
2022-09-03T10:00:16.753Z,100535.47
2022-09-03T10:05:24.510Z,100527.13
2022-09-03T10:08:01.365Z,100515.31
2022-09-03T10:10:35.423Z,100522.50
2022-09-03T10:13:09.527Z,100521.25
2022-09-03T10:15:45.196Z,100519.88
2022-09-03T10:18:18.366Z,100526.28
2022-09-03T10:20:48.220Z,100522.78
2022-09-03T10:23:28.346Z,100529.03
2022-09-03T10:26:00.574Z,100524.91
2022-09-03T10:28:29.540Z,100519.78
2022-09-03T10:31:16.073Z,100516.66
2022-09-03T10:33:49.533Z,100513.34
2022-09-03T10:36:26.472Z,100520.50
2022-09-03T10:39:06.122Z,100508.59
2022-09-03T10:42:07.455Z,100507.84
2022-09-03T10:44:43.635Z,100498.16
2022-09-03T10:47:32.616Z,100507.66
2022-09-03T10:50:10.887Z,100516.72
2022-09-03T10:52:59.327Z,100503.50
2022-09-03T10:55:43.816Z,100511.53
2022-09-03T10:58:31.290Z,100505.78
2022-09-03T11:01:10.784Z,100505.03
2022-09-03T11:03:48.175Z,100502.00
2022-09-03T11:06:29.876Z,100507.16
2022-09-03T11:09:08.277Z,100503.91
2022-09-03T11:11:42.547Z,100494.72
2022-09-03T11:14:12.588Z,100497.13
2022-09-03T11:16:45.672Z,100496.44
2022-09-03T11:19:20.082Z,100493.47
2022-09-03T11:21:48.685Z,100484.47
2022-09-03T11:24:21.055Z,100476.69
2022-09-03T11:26:59.863Z,100469.00
2022-09-03T11:29:47.956Z,100465.03
2022-09-03T11:32:32.737Z,100465.47
2022-09-03T11:34:59.145Z,100453.19
2022-09-03T11:37:28.022Z,100462.56
2022-09-03T11:40:05.374Z,100442.88
2022-09-03T11:42:38.552Z,100445.75
2022-09-03T11:45:36.489Z,100432.41
2022-09-03T11:48:16.669Z,100442.34
2022-09-03T11:50:52.958Z,100433.22
2022-09-03T11:53:19.353Z,100430.25
2022-09-03T11:56:07.362Z,100426.78
2022-09-03T11:58:36.782Z,100428.59
2022-09-03T12:01:10.291Z,100423.44
2022-09-03T12:03:53.119Z,100432.88
2022-09-03T12:06:56.836Z,100420.84
2022-09-03T12:09:47.600Z,100417.72
2022-09-03T12:12:23.968Z,100423.00
2022-09-03T12:15:02.423Z,100426.63
2022-09-03T12:18:12.346Z,100414.72
2022-09-03T12:20:39.845Z,100418.91
2022-09-03T12:23:07.467Z,100411.31
2022-09-03T12:25:34.096Z,100408.84
2022-09-03T12:28:05.371Z,100412.25
2022-09-03T12:30:32.211Z,100398.59
2022-09-03T12:33:10.132Z,100401.44
2022-09-03T12:38:24.876Z,100401.28
2022-09-03T12:43:39.426Z,100393.00
2022-09-03T12:46:14.597Z,100398.16
2022-09-03T12:49:29.192Z,100388.97
2022-09-03T12:51:53.498Z,100391.53
2022-09-03T12:54:21.923Z,100393.50
2022-09-03T12:56:56.764Z,100387.03
2022-09-03T12:59:26.442Z,100397.63
2022-09-03T13:01:57.415Z,100376.66
2022-09-03T13:04:29.164Z,100387.44
2022-09-03T13:07:07.596Z,100374.03
2022-09-03T13:09:37.902Z,100372.63
2022-09-03T13:12:05.845Z,100364.25
2022-09-03T13:14:47.571Z,100366.03
2022-09-03T13:17:23.060Z,100359.16
2022-09-03T13:20:29.305Z,100360.28
2022-09-03T13:23:18.470Z,100351.09
2022-09-03T13:26:14.691Z,100359.16
2022-09-03T13:29:19.967Z,100344.28
2022-09-03T13:31:55.592Z,100344.56
2022-09-03T13:34:48.258Z,100337.81
2022-09-03T13:37:39.367Z,100345.59
2022-09-03T13:40:29.351Z,100331.19
2022-09-03T13:43:20.867Z,100332.06
2022-09-03T13:46:07.926Z,100335.13
2022-09-03T13:48:58.466Z,100336.63
2022-09-03T13:51:37.293Z,100338.59
2022-09-03T13:54:22.329Z,100345.22
2022-09-03T13:57:20.188Z,100345.69
2022-09-03T14:00:03.311Z,100342.28
2022-09-03T14:02:58.485Z,100337.69
2022-09-03T14:05:37.286Z,100340.19
2022-09-03T14:08:18.175Z,100331.53
2022-09-03T14:10:53.815Z,100320.25
2022-09-03T14:14:03.211Z,100336.94
2022-09-03T14:16:42.801Z,100332.41
2022-09-03T14:19:33.812Z,100319.44
2022-09-03T14:22:08.136Z,100324.22
2022-09-03T14:24:48.316Z,100310.22
2022-09-03T14:27:25.255Z,100319.81
2022-09-03T14:30:06.455Z,100321.78
2022-09-03T14:32:54.971Z,100313.81
2022-09-03T14:35:53.965Z,100329.13
2022-09-03T14:38:25.899Z,100326.09
2022-09-03T14:41:05.109Z,100339.69
2022-09-03T14:43:58.402Z,100338.97
2022-09-03T14:46:42.929Z,100340.34
2022-09-03T14:49:47.076Z,100340.72
2022-09-03T14:52:19.549Z,100333.63
2022-09-03T14:54:45.903Z,100340.38
2022-09-03T14:57:15.087Z,100344.03
2022-09-03T15:00:18.519Z,100339.88
2022-09-03T15:02:58.923Z,100353.03
2022-09-03T15:05:49.715Z,100360.31
2022-09-03T15:08:21.997Z,100364.75
2022-09-03T15:10:56.822Z,100375.13
2022-09-03T15:13:31.020Z,100378.16
2022-09-03T15:16:40.438Z,100394.69
2022-09-03T15:19:28.075Z,100394.88
2022-09-03T15:22:30.341Z,100398.19
2022-09-03T15:25:07.121Z,100426.91
2022-09-03T15:27:44.090Z,100474.09
2022-09-03T15:30:21.406Z,100491.72
2022-09-03T15:33:22.104Z,100513.41
2022-09-03T15:35:54.556Z,100528.78
2022-09-03T15:38:45.996Z,100521.91
2022-09-03T15:41:39.732Z,100536.66
2022-09-03T15:44:15.727Z,100533.09
2022-09-03T15:47:05.290Z,100539.44
2022-09-03T15:50:01.193Z,100526.75
2022-09-03T15:52:53.233Z,100528.44
2022-09-03T15:55:37.130Z,100525.16
2022-09-03T15:58:26.359Z,100533.34
2022-09-03T16:01:03.049Z,100543.28
2022-09-03T16:04:01.234Z,100543.13
2022-09-03T16:06:55.396Z,100550.75
2022-09-03T16:10:24.126Z,100545.19
2022-09-03T16:13:19.729Z,100547.22
2022-09-03T16:16:09.702Z,100540.53
2022-09-03T16:18:49.819Z,100544.75
2022-09-03T16:21:30.630Z,100544.78
2022-09-03T16:24:05.461Z,100542.06
2022-09-03T16:26:41.196Z,100546.56
2022-09-03T16:29:16.535Z,100548.00
2022-09-03T16:31:59.693Z,100551.69
2022-09-03T16:35:01.723Z,100567.94
2022-09-03T16:37:34.748Z,100569.09
2022-09-03T16:40:07.499Z,100583.63
2022-09-03T16:42:53.085Z,100587.25
2022-09-03T16:45:41.268Z,100585.84
2022-09-03T16:48:46.344Z,100590.91
2022-09-03T16:51:23.677Z,100583.34
2022-09-03T16:54:05.029Z,100579.19
2022-09-03T16:56:54.284Z,100579.75
2022-09-03T16:59:48.322Z,100573.03
2022-09-03T17:02:42.481Z,100562.41
2022-09-03T17:05:18.242Z,100560.13
2022-09-03T17:08:14.149Z,100562.34
2022-09-03T17:10:53.661Z,100552.16
2022-09-03T17:14:03.962Z,100544.25
2022-09-03T17:16:36.360Z,100533.84
2022-09-03T17:19:23.689Z,100535.22
2022-09-03T17:22:06.091Z,100533.53
2022-09-03T17:25:04.613Z,100527.94
2022-09-03T17:27:50.070Z,100534.66
2022-09-03T17:30:40.634Z,100529.88
2022-09-03T17:33:37.609Z,100527.88
2022-09-03T17:36:10.352Z,100531.78
2022-09-03T17:39:04.576Z,100530.59
2022-09-03T17:41:59.212Z,100529.41
2022-09-03T17:44:36.215Z,100545.06
2022-09-03T17:47:08.792Z,100538.34
2022-09-03T17:49:48.469Z,100544.22
2022-09-03T17:52:39.327Z,100552.91
2022-09-03T17:55:13.097Z,100548.97
2022-09-03T17:57:54.244Z,100563.84
2022-09-03T18:00:28.320Z,100559.69
2022-09-03T18:03:00.639Z,100560.56
2022-09-03T18:05:51.347Z,100559.22
2022-09-03T18:08:40.485Z,100555.38
2022-09-03T18:11:06.881Z,100553.69
2022-09-03T18:14:10.830Z,100559.34
2022-09-03T18:17:03.106Z,100563.34
2022-09-03T18:20:11.060Z,100558.34
2022-09-03T18:23:09.080Z,100562.34
2022-09-03T18:25:59.689Z,100576.34
2022-09-03T18:28:55.702Z,100573.59
2022-09-03T18:31:40.817Z,100567.22
2022-09-03T18:34:27.082Z,100577.56
2022-09-03T18:37:16.579Z,100568.66
2022-09-03T18:40:05.996Z,100587.69
2022-09-03T18:43:05.239Z,100596.09
2022-09-03T18:47:22.572Z,100606.75
2022-09-03T18:49:32.807Z,100608.16
2022-09-03T18:52:34.536Z,100606.78
2022-09-03T18:55:33.025Z,100612.09
2022-09-03T18:58:37.578Z,100624.38
2022-09-03T19:01:44.518Z,100620.22
2022-09-03T19:04:42.892Z,100625.53
2022-09-03T19:07:39.901Z,100630.00
2022-09-03T19:10:32.863Z,100635.28
2022-09-03T19:13:42.127Z,100630.84
2022-09-03T19:16:57.531Z,100635.00
2022-09-03T19:20:23.977Z,100631.63
2022-09-03T19:23:08.814Z,100639.19
2022-09-03T19:25:54.948Z,100645.28
2022-09-03T19:28:45.480Z,100657.59
2022-09-03T19:31:37.520Z,100655.03
2022-09-03T19:34:40.126Z,100664.78
2022-09-03T19:37:40.233Z,100663.66
2022-09-03T19:40:37.447Z,100671.47
2022-09-03T19:43:38.085Z,100661.66
2022-09-03T19:46:48.243Z,100675.88
2022-09-03T19:49:36.854Z,100667.44
2022-09-03T19:52:38.906Z,100671.63
2022-09-03T19:55:24.749Z,100676.91
2022-09-03T19:58:41.664Z,100683.03
2022-09-03T20:01:23.939Z,100687.19
2022-09-03T20:04:10.811Z,100691.91
2022-09-03T20:06:56.836Z,100694.72
2022-09-03T20:09:52.221Z,100693.59
2022-09-03T20:12:21.111Z,100700.53
2022-09-03T20:14:47.674Z,100705.00
2022-09-03T20:17:28.150Z,100703.31
2022-09-03T20:20:17.488Z,100708.31
2022-09-03T20:23:12.901Z,100702.69
2022-09-03T20:25:47.908Z,100708.25
2022-09-03T20:28:41.831Z,100706.28
2022-09-03T20:31:23.419Z,100716.28
2022-09-03T20:34:10.747Z,100713.75
2022-09-03T20:37:13.906Z,100723.78
2022-09-03T20:39:45.981Z,100715.38
2022-09-03T20:42:28.621Z,100719.25
2022-09-03T20:45:12.089Z,100716.75
2022-09-03T20:48:03.290Z,100717.28
2022-09-03T20:50:48.658Z,100719.50
2022-09-03T20:53:17.991Z,100715.31
2022-09-03T20:55:55.527Z,100720.03
2022-09-03T20:58:40.752Z,100717.50
2022-09-03T21:01:09.905Z,100720.84
2022-09-03T21:03:54.023Z,100718.31
2022-09-03T21:06:38.735Z,100735.31
2022-09-03T21:09:33.198Z,100720.78
2022-09-03T21:12:08.685Z,100727.19
2022-09-03T21:14:42.457Z,100719.91
2022-09-03T21:17:23.983Z,100721.31
2022-09-03T21:19:53.034Z,100732.44
2022-09-03T21:22:53.070Z,100725.44
2022-09-03T21:25:38.171Z,100730.16
2022-09-03T21:28:32.563Z,100730.44
2022-09-03T21:31:02.650Z,100733.78
2022-09-03T21:33:34.467Z,100730.97
2022-09-03T21:36:17.463Z,100728.19
2022-09-03T21:38:49.182Z,100735.44
2022-09-03T21:41:29.305Z,100725.97
2022-09-03T21:44:14.521Z,100730.69
2022-09-03T21:46:54.197Z,100727.91
2022-09-03T21:49:40.491Z,100736.81
2022-09-03T21:52:17.080Z,100739.53
2022-09-03T21:54:43.503Z,100744.22
2022-09-03T21:57:22.129Z,100741.97
2022-09-03T22:00:00.967Z,100752.53
2022-09-03T22:02:30.065Z,100754.75
2022-09-03T22:04:57.361Z,100754.75
2022-09-03T22:07:55.293Z,100748.59
2022-09-03T22:10:33.951Z,100746.63
2022-09-03T22:13:21.391Z,100750.72
2022-09-03T22:15:51.850Z,100753.19
2022-09-03T22:18:24.053Z,100757.34
2022-09-03T22:21:27.976Z,100755.09
2022-09-03T22:24:18.983Z,100757.28
2022-09-03T22:27:18.336Z,100752.84
2022-09-03T22:30:03.391Z,100758.91
2022-09-03T22:32:45.600Z,100758.91
2022-09-03T22:35:28.205Z,100759.75
2022-09-03T22:38:21.490Z,100753.34
2022-09-03T22:41:15.991Z,100754.16
2022-09-03T22:43:53.141Z,100751.59
2022-09-03T22:46:23.114Z,100757.69
2022-09-03T22:49:16.824Z,100753.50
2022-09-03T22:51:59.041Z,100761.84
2022-09-03T22:54:35.222Z,100762.09
2022-09-03T22:57:02.927Z,100763.19
2022-09-03T22:59:41.488Z,100769.84
2022-09-03T23:02:17.029Z,100767.06
2022-09-03T23:04:54.727Z,100772.06
2022-09-03T23:07:31.500Z,100771.22
2022-09-03T23:10:03.991Z,100779.00
2022-09-03T23:12:46.411Z,100779.25
2022-09-03T23:15:20.257Z,100788.97
2022-09-03T23:17:54.693Z,100791.16
2022-09-03T23:20:28.151Z,100799.78
2022-09-03T23:23:38.292Z,100797.25
2022-09-03T23:26:13.470Z,100801.13
2022-09-03T23:28:49.482Z,100809.13
2022-09-03T23:31:24.230Z,100813.63
2022-09-03T23:33:54.884Z,100816.16
2022-09-03T23:37:29.638Z,100824.75
2022-09-03T23:40:07.681Z,100825.25
2022-09-03T23:42:43.131Z,100830.50
2022-09-03T23:45:42.142Z,100822.41
2022-09-03T23:48:58.026Z,100826.78
2022-09-03T23:51:47.095Z,100823.44
2022-09-03T23:54:25.520Z,100829.00
2022-09-03T23:57:27.881Z,100832.88
